sensor_id;sensor_type;location;lat;lon;timestamp;pressure;altitude;pressure_sealevel;temperature;humidity
81299;BME280;70766;53.170;18.160;2023-09-19T00:02:14;100234.80;;;18.71;82.98
81299;BME280;70766;53.170;18.160;2023-09-19T00:04:43;100233.46;;;18.68;78.78
81299;BME280;70766;53.170;18.160;2023-09-19T00:07:11;100240.46;;;18.66;80.24
81299;BME280;70766;53.170;18.160;2023-09-19T00:09:39;100241.69;;;18.63;80.57
81299;BME280;70766;53.170;18.160;2023-09-19T00:12:07;100239.20;;;18.62;83.37
81299;BME280;70766;53.170;18.160;2023-09-19T00:14:37;100238.27;;;18.62;85.22
81299;BME280;70766;53.170;18.160;2023-09-19T00:17:05;100232.54;;;18.60;80.90
81299;BME280;70766;53.170;18.160;2023-09-19T00:19:36;100237.86;;;18.60;80.12
81299;BME280;70766;53.170;18.160;2023-09-19T00:22:05;100237.38;;;18.60;80.85
81299;BME280;70766;53.170;18.160;2023-09-19T00:24:33;100243.92;;;18.58;80.57
81299;BME280;70766;53.170;18.160;2023-09-19T00:27:02;100248.15;;;18.60;79.98
81299;BME280;70766;53.170;18.160;2023-09-19T00:29:31;100251.05;;;18.63;80.24
81299;BME280;70766;53.170;18.160;2023-09-19T00:32:00;100252.11;;;18.65;80.66
81299;BME280;70766;53.170;18.160;2023-09-19T00:34:31;100251.98;;;18.67;81.85
81299;BME280;70766;53.170;18.160;2023-09-19T00:37:02;100255.23;;;18.67;80.11
81299;BME280;70766;53.170;18.160;2023-09-19T00:39:30;100255.80;;;18.69;80.62
81299;BME280;70766;53.170;18.160;2023-09-19T00:42:00;100251.56;;;18.70;84.98
81299;BME280;70766;53.170;18.160;2023-09-19T00:44:32;100251.69;;;18.68;92.46
81299;BME280;70766;53.170;18.160;2023-09-19T00:47:02;100251.86;;;18.64;86.26
81299;BME280;70766;53.170;18.160;2023-09-19T00:49:32;100250.92;;;18.59;89.84
81299;BME280;70766;53.170;18.160;2023-09-19T00:52:02;100250.23;;;18.53;87.78
81299;BME280;70766;53.170;18.160;2023-09-19T00:54:34;100243.66;;;18.48;87.86
81299;BME280;70766;53.170;18.160;2023-09-19T00:57:03;100240.46;;;18.43;93.74
81299;BME280;70766;53.170;18.160;2023-09-19T00:59:31;100236.90;;;18.36;87.05
81299;BME280;70766;53.170;18.160;2023-09-19T01:02:00;100237.80;;;18.33;89.40
81299;BME280;70766;53.170;18.160;2023-09-19T01:04:29;100233.89;;;18.33;95.20
81299;BME280;70766;53.170;18.160;2023-09-19T01:06:58;100231.66;;;18.35;89.95
81299;BME280;70766;53.170;18.160;2023-09-19T01:09:26;100222.29;;;18.37;89.65
81299;BME280;70766;53.170;18.160;2023-09-19T01:11:58;100216.34;;;18.42;95.03
81299;BME280;70766;53.170;18.160;2023-09-19T01:14:41;100219.88;;;18.52;97.47
81299;BME280;70766;53.170;18.160;2023-09-19T01:17:22;100226.63;;;18.64;95.47
81299;BME280;70766;53.170;18.160;2023-09-19T01:20:17;100223.55;;;18.85;97.78
81299;BME280;70766;53.170;18.160;2023-09-19T01:30:43;100212.13;;;19.28;91.11
81299;BME280;70766;53.170;18.160;2023-09-19T01:33:12;100204.79;;;19.35;92.49
81299;BME280;70766;53.170;18.160;2023-09-19T01:35:40;100197.40;;;19.41;91.50
81299;BME280;70766;53.170;18.160;2023-09-19T01:38:08;100192.69;;;19.47;91.62
81299;BME280;70766;53.170;18.160;2023-09-19T01:40:42;100188.50;;;19.50;90.68
81299;BME280;70766;53.170;18.160;2023-09-19T01:43:13;100185.91;;;19.52;90.10
81299;BME280;70766;53.170;18.160;2023-09-19T01:45:49;100182.08;;;19.53;91.07
81299;BME280;70766;53.170;18.160;2023-09-19T01:51:11;100175.39;;;19.53;89.60
81299;BME280;70766;53.170;18.160;2023-09-19T01:59:27;100188.11;;;19.50;88.21
81299;BME280;70766;53.170;18.160;2023-09-19T02:01:59;100195.44;;;19.49;89.04
81299;BME280;70766;53.170;18.160;2023-09-19T02:04:28;100201.90;;;19.46;89.08
81299;BME280;70766;53.170;18.160;2023-09-19T02:06:57;100205.69;;;19.43;89.42
81299;BME280;70766;53.170;18.160;2023-09-19T02:09:26;100202.94;;;19.39;88.85
81299;BME280;70766;53.170;18.160;2023-09-19T02:11:54;100199.91;;;19.34;91.22
81299;BME280;70766;53.170;18.160;2023-09-19T02:14:23;100203.50;;;19.30;88.90
81299;BME280;70766;53.170;18.160;2023-09-19T02:16:51;100208.02;;;19.25;88.06
81299;BME280;70766;53.170;18.160;2023-09-19T02:19:20;100216.48;;;19.20;92.27
81299;BME280;70766;53.170;18.160;2023-09-19T02:21:50;100218.71;;;19.16;90.84
81299;BME280;70766;53.170;18.160;2023-09-19T02:24:18;100210.30;;;19.11;91.21
81299;BME280;70766;53.170;18.160;2023-09-19T02:26:47;100195.23;;;19.06;92.66
81299;BME280;70766;53.170;18.160;2023-09-19T02:29:15;100190.38;;;19.00;93.48
81299;BME280;70766;53.170;18.160;2023-09-19T02:31:43;100203.46;;;18.94;94.69
81299;BME280;70766;53.170;18.160;2023-09-19T02:34:11;100205.17;;;18.88;100.00
81299;BME280;70766;53.170;18.160;2023-09-19T02:36:39;100206.32;;;18.80;100.00
81299;BME280;70766;53.170;18.160;2023-09-19T02:39:07;100205.77;;;18.72;100.00
81299;BME280;70766;53.170;18.160;2023-09-19T02:41:36;100202.73;;;18.66;100.00
81299;BME280;70766;53.170;18.160;2023-09-19T02:44:04;100204.66;;;18.59;100.00
81299;BME280;70766;53.170;18.160;2023-09-19T02:46:35;100211.56;;;18.55;100.00
81299;BME280;70766;53.170;18.160;2023-09-19T02:49:06;100217.93;;;18.49;100.00
81299;BME280;70766;53.170;18.160;2023-09-19T02:51:34;100222.52;;;18.44;100.00
81299;BME280;70766;53.170;18.160;2023-09-19T02:54:02;100225.60;;;18.40;100.00
81299;BME280;70766;53.170;18.160;2023-09-19T02:56:31;100226.16;;;18.37;100.00
81299;BME280;70766;53.170;18.160;2023-09-19T02:59:00;100230.48;;;18.33;100.00
81299;BME280;70766;53.170;18.160;2023-09-19T03:01:28;100240.17;;;18.32;100.00
81299;BME280;70766;53.170;18.160;2023-09-19T03:03:57;100240.16;;;18.27;100.00
81299;BME280;70766;53.170;18.160;2023-09-19T03:06:25;100241.48;;;18.24;100.00
81299;BME280;70766;53.170;18.160;2023-09-19T03:08:53;100237.10;;;18.17;100.00
81299;BME280;70766;53.170;18.160;2023-09-19T03:11:23;100234.85;;;18.10;100.00
81299;BME280;70766;53.170;18.160;2023-09-19T03:13:56;100240.44;;;18.04;100.00
81299;BME280;70766;53.170;18.160;2023-09-19T03:16:24;100247.12;;;17.98;100.00
81299;BME280;70766;53.170;18.160;2023-09-19T03:18:55;100246.70;;;17.92;100.00
81299;BME280;70766;53.170;18.160;2023-09-19T03:21:23;100249.51;;;17.86;100.00
81299;BME280;70766;53.170;18.160;2023-09-19T03:23:52;100248.44;;;17.78;100.00
81299;BME280;70766;53.170;18.160;2023-09-19T03:26:21;100241.65;;;17.72;100.00
81299;BME280;70766;53.170;18.160;2023-09-19T03:28:49;100233.94;;;17.65;100.00
81299;BME280;70766;53.170;18.160;2023-09-19T03:31:17;100232.33;;;17.62;100.00
81299;BME280;70766;53.170;18.160;2023-09-19T03:33:47;100234.31;;;17.61;100.00
81299;BME280;70766;53.170;18.160;2023-09-19T03:36:15;100236.21;;;17.59;100.00
81299;BME280;70766;53.170;18.160;2023-09-19T03:38:43;100235.07;;;17.59;100.00
81299;BME280;70766;53.170;18.160;2023-09-19T03:41:11;100239.28;;;17.56;100.00
81299;BME280;70766;53.170;18.160;2023-09-19T03:43:42;100239.49;;;17.55;100.00
81299;BME280;70766;53.170;18.160;2023-09-19T03:46:11;100237.42;;;17.55;100.00
81299;BME280;70766;53.170;18.160;2023-09-19T03:48:40;100232.79;;;17.55;100.00
81299;BME280;70766;53.170;18.160;2023-09-19T03:51:08;100234.25;;;17.53;100.00
81299;BME280;70766;53.170;18.160;2023-09-19T03:53:36;100226.11;;;17.53;100.00
81299;BME280;70766;53.170;18.160;2023-09-19T03:56:05;100228.66;;;17.54;100.00
81299;BME280;70766;53.170;18.160;2023-09-19T03:58:33;100232.68;;;17.52;100.00
81299;BME280;70766;53.170;18.160;2023-09-19T04:01:06;100239.36;;;17.51;100.00
81299;BME280;70766;53.170;18.160;2023-09-19T04:03:37;100237.05;;;17.48;100.00
81299;BME280;70766;53.170;18.160;2023-09-19T04:06:16;100235.59;;;17.48;100.00
81299;BME280;70766;53.170;18.160;2023-09-19T04:08:45;100236.30;;;17.48;100.00
81299;BME280;70766;53.170;18.160;2023-09-19T04:11:15;100233.00;;;17.47;100.00
81299;BME280;70766;53.170;18.160;2023-09-19T04:13:43;100231.69;;;17.46;100.00
81299;BME280;70766;53.170;18.160;2023-09-19T04:16:11;100230.38;;;17.44;100.00
81299;BME280;70766;53.170;18.160;2023-09-19T04:18:40;100227.84;;;17.44;100.00
81299;BME280;70766;53.170;18.160;2023-09-19T04:21:09;100224.32;;;17.45;100.00
81299;BME280;70766;53.170;18.160;2023-09-19T04:23:37;100224.48;;;17.44;100.00
81299;BME280;70766;53.170;18.160;2023-09-19T04:26:05;100222.79;;;17.44;100.00
81299;BME280;70766;53.170;18.160;2023-09-19T04:28:35;100212.05;;;17.47;100.00
81299;BME280;70766;53.170;18.160;2023-09-19T04:31:06;100206.95;;;17.47;100.00
81299;BME280;70766;53.170;18.160;2023-09-19T04:33:36;100208.88;;;17.50;100.00
81299;BME280;70766;53.170;18.160;2023-09-19T04:36:04;100216.73;;;17.52;100.00
81299;BME280;70766;53.170;18.160;2023-09-19T04:38:55;100213.45;;;17.55;100.00
81299;BME280;70766;53.170;18.160;2023-09-19T04:41:23;100214.24;;;17.58;100.00
81299;BME280;70766;53.170;18.160;2023-09-19T04:43:52;100225.34;;;17.61;100.00
81299;BME280;70766;53.170;18.160;2023-09-19T04:46:20;100233.27;;;17.61;100.00
81299;BME280;70766;53.170;18.160;2023-09-19T04:48:49;100228.70;;;17.62;100.00
81299;BME280;70766;53.170;18.160;2023-09-19T04:51:17;100238.64;;;17.62;100.00
81299;BME280;70766;53.170;18.160;2023-09-19T04:53:46;100239.55;;;17.64;100.00
81299;BME280;70766;53.170;18.160;2023-09-19T04:56:15;100236.94;;;17.64;100.00
81299;BME280;70766;53.170;18.160;2023-09-19T04:58:43;100231.98;;;17.65;100.00
81299;BME280;70766;53.170;18.160;2023-09-19T05:01:12;100231.16;;;17.66;100.00
81299;BME280;70766;53.170;18.160;2023-09-19T05:03:43;100231.95;;;17.68;100.00
81299;BME280;70766;53.170;18.160;2023-09-19T05:06:13;100232.16;;;17.71;100.00
81299;BME280;70766;53.170;18.160;2023-09-19T05:08:41;100226.33;;;17.73;100.00
81299;BME280;70766;53.170;18.160;2023-09-19T05:11:09;100221.04;;;17.76;100.00
81299;BME280;70766;53.170;18.160;2023-09-19T05:13:37;100211.09;;;17.78;100.00
81299;BME280;70766;53.170;18.160;2023-09-19T05:16:05;100216.03;;;17.78;100.00
81299;BME280;70766;53.170;18.160;2023-09-19T05:18:33;100220.20;;;17.80;100.00
81299;BME280;70766;53.170;18.160;2023-09-19T05:21:02;100220.48;;;17.79;100.00
81299;BME280;70766;53.170;18.160;2023-09-19T05:23:31;100217.84;;;17.81;100.00
81299;BME280;70766;53.170;18.160;2023-09-19T05:25:59;100220.80;;;17.85;100.00
81299;BME280;70766;53.170;18.160;2023-09-19T05:28:27;100230.40;;;17.85;100.00
81299;BME280;70766;53.170;18.160;2023-09-19T05:30:56;100231.86;;;17.88;100.00
81299;BME280;70766;53.170;18.160;2023-09-19T05:33:24;100229.91;;;17.92;100.00
81299;BME280;70766;53.170;18.160;2023-09-19T05:35:52;100232.30;;;17.97;100.00
81299;BME280;70766;53.170;18.160;2023-09-19T05:38:21;100232.84;;;17.99;100.00
81299;BME280;70766;53.170;18.160;2023-09-19T05:40:50;100236.41;;;17.99;100.00
81299;BME280;70766;53.170;18.160;2023-09-19T05:43:18;100240.24;;;18.02;100.00
81299;BME280;70766;53.170;18.160;2023-09-19T05:45:47;100247.02;;;18.02;100.00
81299;BME280;70766;53.170;18.160;2023-09-19T05:48:15;100250.01;;;18.03;100.00
81299;BME280;70766;53.170;18.160;2023-09-19T05:50:44;100246.89;;;18.05;100.00
81299;BME280;70766;53.170;18.160;2023-09-19T05:53:16;100250.90;;;18.07;100.00
81299;BME280;70766;53.170;18.160;2023-09-19T05:55:46;100248.41;;;18.02;100.00
81299;BME280;70766;53.170;18.160;2023-09-19T05:58:14;100249.39;;;18.05;100.00
81299;BME280;70766;53.170;18.160;2023-09-19T06:00:45;100251.90;;;18.05;100.00
81299;BME280;70766;53.170;18.160;2023-09-19T06:03:15;100242.20;;;18.07;100.00
81299;BME280;70766;53.170;18.160;2023-09-19T06:05:45;100238.73;;;18.06;100.00
81299;BME280;70766;53.170;18.160;2023-09-19T06:08:17;100243.67;;;18.07;100.00
81299;BME280;70766;53.170;18.160;2023-09-19T06:10:46;100241.40;;;18.07;100.00
81299;BME280;70766;53.170;18.160;2023-09-19T06:13:14;100249.52;;;18.09;100.00
81299;BME280;70766;53.170;18.160;2023-09-19T06:15:43;100254.83;;;18.05;100.00
81299;BME280;70766;53.170;18.160;2023-09-19T06:18:11;100251.41;;;18.04;100.00
81299;BME280;70766;53.170;18.160;2023-09-19T06:20:48;100254.70;;;18.01;100.00
81299;BME280;70766;53.170;18.160;2023-09-19T06:23:21;100256.29;;;17.99;100.00
81299;BME280;70766;53.170;18.160;2023-09-19T06:25:49;100261.54;;;17.96;100.00
81299;BME280;70766;53.170;18.160;2023-09-19T06:28:17;100263.91;;;17.92;100.00
81299;BME280;70766;53.170;18.160;2023-09-19T06:30:51;100267.58;;;17.89;100.00
81299;BME280;70766;53.170;18.160;2023-09-19T06:33:20;100273.20;;;17.85;100.00
81299;BME280;70766;53.170;18.160;2023-09-19T06:35:49;100283.73;;;17.78;100.00
81299;BME280;70766;53.170;18.160;2023-09-19T06:38:20;100284.50;;;17.77;100.00
81299;BME280;70766;53.170;18.160;2023-09-19T06:40:48;100291.61;;;17.76;100.00
81299;BME280;70766;53.170;18.160;2023-09-19T06:43:17;100293.73;;;17.76;100.00
81299;BME280;70766;53.170;18.160;2023-09-19T06:45:45;100294.64;;;17.77;100.00
81299;BME280;70766;53.170;18.160;2023-09-19T06:48:13;100296.58;;;17.81;100.00
81299;BME280;70766;53.170;18.160;2023-09-19T06:50:42;100296.71;;;17.85;100.00
81299;BME280;70766;53.170;18.160;2023-09-19T06:53:12;100295.98;;;17.88;100.00
81299;BME280;70766;53.170;18.160;2023-09-19T06:55:40;100300.30;;;17.91;100.00
81299;BME280;70766;53.170;18.160;2023-09-19T06:58:08;100303.09;;;17.95;100.00
81299;BME280;70766;53.170;18.160;2023-09-19T07:00:36;100301.95;;;18.00;100.00
81299;BME280;70766;53.170;18.160;2023-09-19T07:03:07;100305.59;;;18.08;100.00
81299;BME280;70766;53.170;18.160;2023-09-19T07:05:38;100311.79;;;18.20;100.00
81299;BME280;70766;53.170;18.160;2023-09-19T07:08:10;100313.14;;;18.31;100.00
81299;BME280;70766;53.170;18.160;2023-09-19T07:10:42;100308.41;;;18.41;100.00
81299;BME280;70766;53.170;18.160;2023-09-19T07:13:16;100313.59;;;18.49;100.00
81299;BME280;70766;53.170;18.160;2023-09-19T07:15:45;100313.27;;;18.61;100.00
81299;BME280;70766;53.170;18.160;2023-09-19T07:18:18;100310.77;;;18.65;100.00
81299;BME280;70766;53.170;18.160;2023-09-19T07:20:48;100316.45;;;18.72;100.00
81299;BME280;70766;53.170;18.160;2023-09-19T07:23:19;100317.98;;;18.81;100.00
81299;BME280;70766;53.170;18.160;2023-09-19T07:25:49;100319.45;;;18.86;100.00
81299;BME280;70766;53.170;18.160;2023-09-19T07:28:17;100321.50;;;19.02;100.00
81299;BME280;70766;53.170;18.160;2023-09-19T07:30:46;100317.06;;;19.21;100.00
81299;BME280;70766;53.170;18.160;2023-09-19T07:33:14;100315.27;;;19.40;100.00
81299;BME280;70766;53.170;18.160;2023-09-19T07:35:46;100314.71;;;19.45;100.00
81299;BME280;70766;53.170;18.160;2023-09-19T07:38:15;100313.30;;;19.48;100.00
81299;BME280;70766;53.170;18.160;2023-09-19T07:40:43;100323.13;;;19.49;100.00
81299;BME280;70766;53.170;18.160;2023-09-19T07:43:12;100326.92;;;19.42;100.00
81299;BME280;70766;53.170;18.160;2023-09-19T07:45:41;100330.58;;;19.39;100.00
81299;BME280;70766;53.170;18.160;2023-09-19T07:48:09;100329.30;;;19.44;100.00
81299;BME280;70766;53.170;18.160;2023-09-19T07:50:43;100330.19;;;19.51;100.00
81299;BME280;70766;53.170;18.160;2023-09-19T07:53:14;100327.56;;;19.52;100.00
81299;BME280;70766;53.170;18.160;2023-09-19T07:55:44;100336.51;;;19.58;100.00
81299;BME280;70766;53.170;18.160;2023-09-19T07:58:16;100339.02;;;19.59;100.00
81299;BME280;70766;53.170;18.160;2023-09-19T08:00:44;100344.92;;;19.53;100.00
81299;BME280;70766;53.170;18.160;2023-09-19T08:03:14;100350.83;;;19.46;100.00
81299;BME280;70766;53.170;18.160;2023-09-19T08:05:46;100351.77;;;19.28;100.00
81299;BME280;70766;53.170;18.160;2023-09-19T08:08:16;100355.41;;;19.14;100.00
81299;BME280;70766;53.170;18.160;2023-09-19T08:10:44;100354.09;;;19.00;100.00
81299;BME280;70766;53.170;18.160;2023-09-19T08:13:14;100360.21;;;18.85;100.00
81299;BME280;70766;53.170;18.160;2023-09-19T08:15:45;100357.14;;;18.71;100.00
81299;BME280;70766;53.170;18.160;2023-09-19T08:18:14;100357.73;;;18.66;100.00
81299;BME280;70766;53.170;18.160;2023-09-19T08:20:49;100355.84;;;18.70;100.00
81299;BME280;70766;53.170;18.160;2023-09-19T08:23:19;100357.39;;;18.93;100.00
81299;BME280;70766;53.170;18.160;2023-09-19T08:25:49;100364.39;;;19.29;100.00
81299;BME280;70766;53.170;18.160;2023-09-19T08:28:17;100364.61;;;19.50;100.00
81299;BME280;70766;53.170;18.160;2023-09-19T08:30:52;100360.08;;;19.74;100.00
81299;BME280;70766;53.170;18.160;2023-09-19T08:33:23;100361.95;;;19.94;100.00
81299;BME280;70766;53.170;18.160;2023-09-19T08:35:51;100362.13;;;20.23;100.00
81299;BME280;70766;53.170;18.160;2023-09-19T08:38:19;100368.03;;;20.45;100.00
81299;BME280;70766;53.170;18.160;2023-09-19T08:40:48;100372.70;;;20.46;100.00
81299;BME280;70766;53.170;18.160;2023-09-19T08:43:16;100375.05;;;20.43;100.00
81299;BME280;70766;53.170;18.160;2023-09-19T08:45:44;100381.60;;;20.35;100.00
81299;BME280;70766;53.170;18.160;2023-09-19T08:48:27;100386.14;;;20.16;100.00
81299;BME280;70766;53.170;18.160;2023-09-19T08:51:02;100393.11;;;19.98;100.00
81299;BME280;70766;53.170;18.160;2023-09-19T08:53:51;100394.94;;;20.08;100.00
81299;BME280;70766;53.170;18.160;2023-09-19T08:56:22;100397.55;;;20.27;100.00
81299;BME280;70766;53.170;18.160;2023-09-19T08:58:53;100403.29;;;20.40;100.00
81299;BME280;70766;53.170;18.160;2023-09-19T09:01:22;100404.30;;;20.70;100.00
81299;BME280;70766;53.170;18.160;2023-09-19T09:03:55;100400.67;;;20.95;100.00
81299;BME280;70766;53.170;18.160;2023-09-19T09:06:25;100401.37;;;21.11;100.00
81299;BME280;70766;53.170;18.160;2023-09-19T09:08:53;100393.19;;;21.40;100.00
81299;BME280;70766;53.170;18.160;2023-09-19T09:11:22;100394.11;;;21.89;100.00
81299;BME280;70766;53.170;18.160;2023-09-19T09:13:53;100386.80;;;22.32;97.81
81299;BME280;70766;53.170;18.160;2023-09-19T09:16:21;100385.63;;;22.51;97.80
81299;BME280;70766;53.170;18.160;2023-09-19T09:18:53;100395.14;;;22.73;94.46
81299;BME280;70766;53.170;18.160;2023-09-19T09:21:25;100396.16;;;22.65;94.52
81299;BME280;70766;53.170;18.160;2023-09-19T09:23:54;100395.74;;;22.77;92.12
81299;BME280;70766;53.170;18.160;2023-09-19T09:26:56;100397.70;;;22.77;89.51
81299;BME280;70766;53.170;18.160;2023-09-19T09:29:42;100399.38;;;22.35;88.57
81299;BME280;70766;53.170;18.160;2023-09-19T09:32:25;100407.44;;;21.70;91.23
81299;BME280;70766;53.170;18.160;2023-09-19T09:34:59;100414.30;;;21.41;94.39
81299;BME280;70766;53.170;18.160;2023-09-19T09:37:29;100408.86;;;21.32;95.51
81299;BME280;70766;53.170;18.160;2023-09-19T09:40:01;100412.64;;;21.56;94.87
81299;BME280;70766;53.170;18.160;2023-09-19T09:42:44;100408.57;;;21.93;92.89
81299;BME280;70766;53.170;18.160;2023-09-19T09:45:24;100415.52;;;22.14;87.19
81299;BME280;70766;53.170;18.160;2023-09-19T09:48:12;100405.56;;;22.41;88.81
81299;BME280;70766;53.170;18.160;2023-09-19T09:50:48;100408.43;;;22.67;87.03
81299;BME280;70766;53.170;18.160;2023-09-19T09:53:24;100414.77;;;22.90;81.41
81299;BME280;70766;53.170;18.160;2023-09-19T09:56:08;100421.33;;;23.04;76.95
81299;BME280;70766;53.170;18.160;2023-09-19T10:01:16;100416.72;;;23.05;74.38
81299;BME280;70766;53.170;18.160;2023-09-19T10:03:45;100416.16;;;22.83;73.94
81299;BME280;70766;53.170;18.160;2023-09-19T10:06:17;100408.02;;;22.64;72.18
81299;BME280;70766;53.170;18.160;2023-09-19T10:09:06;100410.58;;;22.60;71.04
81299;BME280;70766;53.170;18.160;2023-09-19T10:11:41;100417.17;;;22.65;70.11
81299;BME280;70766;53.170;18.160;2023-09-19T10:14:12;100425.44;;;23.05;69.34
81299;BME280;70766;53.170;18.160;2023-09-19T10:16:48;100423.91;;;23.25;67.21
81299;BME280;70766;53.170;18.160;2023-09-19T10:19:29;100425.69;;;23.10;65.63
81299;BME280;70766;53.170;18.160;2023-09-19T10:21:59;100428.00;;;23.07;65.56
81299;BME280;70766;53.170;18.160;2023-09-19T10:24:30;100420.69;;;22.77;64.72
81299;BME280;70766;53.170;18.160;2023-09-19T10:27:00;100424.73;;;22.79;65.46
81299;BME280;70766;53.170;18.160;2023-09-19T10:29:28;100434.63;;;22.86;65.07
81299;BME280;70766;53.170;18.160;2023-09-19T10:32:01;100445.13;;;22.76;64.24
81299;BME280;70766;53.170;18.160;2023-09-19T10:34:35;100452.52;;;22.97;63.98
81299;BME280;70766;53.170;18.160;2023-09-19T10:37:04;100456.40;;;23.10;64.42
81299;BME280;70766;53.170;18.160;2023-09-19T10:39:35;100458.68;;;23.06;64.03
81299;BME280;70766;53.170;18.160;2023-09-19T10:42:07;100455.50;;;22.85;63.05
81299;BME280;70766;53.170;18.160;2023-09-19T10:44:41;100456.73;;;22.63;63.94
81299;BME280;70766;53.170;18.160;2023-09-19T10:47:11;100460.40;;;22.78;63.00
81299;BME280;70766;53.170;18.160;2023-09-19T10:49:44;100457.27;;;22.81;62.51
81299;BME280;70766;53.170;18.160;2023-09-19T10:52:20;100452.39;;;23.21;61.69
81299;BME280;70766;53.170;18.160;2023-09-19T10:54:53;100458.68;;;23.49;60.60
81299;BME280;70766;53.170;18.160;2023-09-19T10:57:25;100449.53;;;23.90;58.40
81299;BME280;70766;53.170;18.160;2023-09-19T11:00:21;100451.98;;;23.96;56.77
81299;BME280;70766;53.170;18.160;2023-09-19T11:05:41;100445.48;;;24.07;56.62
81299;BME280;70766;53.170;18.160;2023-09-19T11:08:10;100440.50;;;24.51;56.04
81299;BME280;70766;53.170;18.160;2023-09-19T11:10:50;100433.82;;;24.59;54.14
81299;BME280;70766;53.170;18.160;2023-09-19T11:13:31;100434.73;;;24.38;52.37
81299;BME280;70766;53.170;18.160;2023-09-19T11:16:04;100437.73;;;24.28;52.75
81299;BME280;70766;53.170;18.160;2023-09-19T11:26:50;100437.83;;;24.52;53.34
81299;BME280;70766;53.170;18.160;2023-09-19T11:29:30;100453.31;;;24.52;52.06
81299;BME280;70766;53.170;18.160;2023-09-19T11:31:59;100451.91;;;24.71;51.46
81299;BME280;70766;53.170;18.160;2023-09-19T11:34:41;100448.09;;;24.98;49.22
81299;BME280;70766;53.170;18.160;2023-09-19T11:40:07;100445.25;;;24.89;48.62
81299;BME280;70766;53.170;18.160;2023-09-19T11:42:45;100455.19;;;24.58;49.34
81299;BME280;70766;53.170;18.160;2023-09-19T11:48:08;100455.19;;;24.55;48.98
81299;BME280;70766;53.170;18.160;2023-09-19T11:50:37;100458.58;;;24.31;49.40
81299;BME280;70766;53.170;18.160;2023-09-19T11:53:05;100462.58;;;24.38;49.65
81299;BME280;70766;53.170;18.160;2023-09-19T11:55:35;100465.41;;;24.52;49.06
81299;BME280;70766;53.170;18.160;2023-09-19T11:58:07;100464.38;;;24.42;48.38
81299;BME280;70766;53.170;18.160;2023-09-19T12:00:37;100478.52;;;24.36;48.01
81299;BME280;70766;53.170;18.160;2023-09-19T12:03:09;100473.71;;;24.25;47.62
81299;BME280;70766;53.170;18.160;2023-09-19T12:05:38;100478.63;;;23.96;47.29
81299;BME280;70766;53.170;18.160;2023-09-19T12:08:07;100480.36;;;23.82;47.41
81299;BME280;70766;53.170;18.160;2023-09-19T12:10:47;100477.71;;;23.73;47.39
81299;BME280;70766;53.170;18.160;2023-09-19T12:13:18;100478.09;;;23.79;47.94
81299;BME280;70766;53.170;18.160;2023-09-19T12:15:46;100482.20;;;23.92;47.02
81299;BME280;70766;53.170;18.160;2023-09-19T12:18:29;100488.02;;;24.19;46.53
81299;BME280;70766;53.170;18.160;2023-09-19T12:20:58;100488.55;;;24.80;45.40
81299;BME280;70766;53.170;18.160;2023-09-19T12:23:27;100485.39;;;25.26;43.96
81299;BME280;70766;53.170;18.160;2023-09-19T12:25:55;100479.09;;;25.67;43.30
81299;BME280;70766;53.170;18.160;2023-09-19T12:28:26;100491.92;;;25.81;43.27
81299;BME280;70766;53.170;18.160;2023-09-19T12:30:55;100493.19;;;26.00;42.03
81299;BME280;70766;53.170;18.160;2023-09-19T12:33:23;100490.89;;;25.95;41.94
81299;BME280;70766;53.170;18.160;2023-09-19T12:35:54;100506.20;;;25.76;40.76
81299;BME280;70766;53.170;18.160;2023-09-19T12:38:26;100504.02;;;25.65;40.85
81299;BME280;70766;53.170;18.160;2023-09-19T12:41:01;100504.73;;;25.46;41.70
81299;BME280;70766;53.170;18.160;2023-09-19T12:43:30;100506.19;;;25.22;42.61
81299;BME280;70766;53.170;18.160;2023-09-19T12:46:02;100508.45;;;25.04;43.20
81299;BME280;70766;53.170;18.160;2023-09-19T12:48:30;100513.66;;;24.82;43.93
81299;BME280;70766;53.170;18.160;2023-09-19T12:51:07;100511.13;;;24.85;44.26
81299;BME280;70766;53.170;18.160;2023-09-19T12:53:44;100517.67;;;24.82;44.52
81299;BME280;70766;53.170;18.160;2023-09-19T12:56:17;100520.69;;;24.56;45.22
81299;BME280;70766;53.170;18.160;2023-09-19T12:58:57;100518.27;;;24.05;46.13
81299;BME280;70766;53.170;18.160;2023-09-19T13:01:29;100520.91;;;24.39;46.01
81299;BME280;70766;53.170;18.160;2023-09-19T13:04:17;100522.66;;;24.49;45.91
81299;BME280;70766;53.170;18.160;2023-09-19T13:06:54;100520.20;;;24.88;44.94
81299;BME280;70766;53.170;18.160;2023-09-19T13:09:23;100525.63;;;24.86;44.87
81299;BME280;70766;53.170;18.160;2023-09-19T13:12:00;100519.69;;;24.92;43.19
81299;BME280;70766;53.170;18.160;2023-09-19T13:14:30;100509.23;;;24.86;41.72
81299;BME280;70766;53.170;18.160;2023-09-19T13:17:08;100522.15;;;24.89;42.02
81299;BME280;70766;53.170;18.160;2023-09-19T13:19:49;100515.34;;;24.98;42.12
81299;BME280;70766;53.170;18.160;2023-09-19T13:22:43;100514.37;;;25.03;41.83
81299;BME280;70766;53.170;18.160;2023-09-19T13:25:20;100517.16;;;25.22;41.53
81299;BME280;70766;53.170;18.160;2023-09-19T13:27:52;100529.00;;;24.97;41.31
81299;BME280;70766;53.170;18.160;2023-09-19T13:30:23;100527.15;;;24.97;41.77
81299;BME280;70766;53.170;18.160;2023-09-19T13:35:35;100522.29;;;25.31;40.62